sensor_id;sensor_type;location;lat;lon;timestamp;temperature;humidity
14119;DHT22;7138;49.246;9.100;2023-08-08T00:00:15;13.50;99.90
14119;DHT22;7138;49.246;9.100;2023-08-08T00:02:41;13.50;99.90
14119;DHT22;7138;49.246;9.100;2023-08-08T00:05:08;13.50;99.90
14119;DHT22;7138;49.246;9.100;2023-08-08T00:07:34;13.50;99.90
14119;DHT22;7138;49.246;9.100;2023-08-08T00:10:00;13.40;99.90
14119;DHT22;7138;49.246;9.100;2023-08-08T00:12:26;13.30;99.90
14119;DHT22;7138;49.246;9.100;2023-08-08T00:14:52;13.30;99.90
14119;DHT22;7138;49.246;9.100;2023-08-08T00:17:19;13.20;99.90
14119;DHT22;7138;49.246;9.100;2023-08-08T00:19:45;13.10;99.90
14119;DHT22;7138;49.246;9.100;2023-08-08T00:22:11;13.10;99.90
14119;DHT22;7138;49.246;9.100;2023-08-08T00:24:36;13.00;99.90
14119;DHT22;7138;49.246;9.100;2023-08-08T00:27:03;12.90;99.90
14119;DHT22;7138;49.246;9.100;2023-08-08T00:29:29;13.00;99.90
14119;DHT22;7138;49.246;9.100;2023-08-08T00:31:55;13.00;99.90
14119;DHT22;7138;49.246;9.100;2023-08-08T00:34:22;12.90;99.90
14119;DHT22;7138;49.246;9.100;2023-08-08T00:36:48;12.80;99.90
14119;DHT22;7138;49.246;9.100;2023-08-08T00:39:14;12.70;99.90
14119;DHT22;7138;49.246;9.100;2023-08-08T00:41:40;12.80;99.90
14119;DHT22;7138;49.246;9.100;2023-08-08T00:44:06;12.70;99.90
14119;DHT22;7138;49.246;9.100;2023-08-08T00:46:32;12.60;99.90
14119;DHT22;7138;49.246;9.100;2023-08-08T00:48:57;12.60;99.90
14119;DHT22;7138;49.246;9.100;2023-08-08T00:51:25;12.60;99.90
14119;DHT22;7138;49.246;9.100;2023-08-08T00:53:51;12.60;99.90
14119;DHT22;7138;49.246;9.100;2023-08-08T00:56:18;12.50;99.90
14119;DHT22;7138;49.246;9.100;2023-08-08T00:58:45;12.50;99.90
14119;DHT22;7138;49.246;9.100;2023-08-08T01:01:11;12.50;99.90
14119;DHT22;7138;49.246;9.100;2023-08-08T01:03:37;12.50;99.90
14119;DHT22;7138;49.246;9.100;2023-08-08T01:06:08;12.50;99.90
14119;DHT22;7138;49.246;9.100;2023-08-08T01:08:45;12.50;99.90
14119;DHT22;7138;49.246;9.100;2023-08-08T01:11:17;12.50;99.90
14119;DHT22;7138;49.246;9.100;2023-08-08T01:13:43;12.50;99.90
14119;DHT22;7138;49.246;9.100;2023-08-08T01:16:12;12.50;99.90
14119;DHT22;7138;49.246;9.100;2023-08-08T01:18:39;12.50;99.90
14119;DHT22;7138;49.246;9.100;2023-08-08T01:21:06;12.40;99.90
14119;DHT22;7138;49.246;9.100;2023-08-08T01:23:44;12.40;99.90
14119;DHT22;7138;49.246;9.100;2023-08-08T01:26:17;12.50;99.90
14119;DHT22;7138;49.246;9.100;2023-08-08T01:28:44;12.50;99.90
14119;DHT22;7138;49.246;9.100;2023-08-08T01:31:10;12.60;99.90
14119;DHT22;7138;49.246;9.100;2023-08-08T01:33:36;12.60;99.90
14119;DHT22;7138;49.246;9.100;2023-08-08T01:36:07;12.60;99.90
14119;DHT22;7138;49.246;9.100;2023-08-08T01:38:41;12.60;99.90
14119;DHT22;7138;49.246;9.100;2023-08-08T01:41:10;12.60;99.90
14119;DHT22;7138;49.246;9.100;2023-08-08T01:43:38;12.70;99.90
14119;DHT22;7138;49.246;9.100;2023-08-08T01:46:05;12.70;99.90
14119;DHT22;7138;49.246;9.100;2023-08-08T01:48:32;12.70;99.90
14119;DHT22;7138;49.246;9.100;2023-08-08T01:50:58;12.70;99.90
14119;DHT22;7138;49.246;9.100;2023-08-08T01:53:24;12.70;99.90
14119;DHT22;7138;49.246;9.100;2023-08-08T01:55:50;12.70;99.90
14119;DHT22;7138;49.246;9.100;2023-08-08T01:58:17;12.80;99.90
14119;DHT22;7138;49.246;9.100;2023-08-08T02:00:44;12.70;99.90
14119;DHT22;7138;49.246;9.100;2023-08-08T02:03:12;12.70;99.90
14119;DHT22;7138;49.246;9.100;2023-08-08T02:05:41;12.60;99.90
14119;DHT22;7138;49.246;9.100;2023-08-08T02:08:07;12.60;99.90
14119;DHT22;7138;49.246;9.100;2023-08-08T02:10:32;12.60;99.90
14119;DHT22;7138;49.246;9.100;2023-08-08T02:12:58;12.50;99.90
14119;DHT22;7138;49.246;9.100;2023-08-08T02:15:24;12.50;99.90
14119;DHT22;7138;49.246;9.100;2023-08-08T02:17:52;12.50;99.90
14119;DHT22;7138;49.246;9.100;2023-08-08T02:20:18;12.50;99.90
14119;DHT22;7138;49.246;9.100;2023-08-08T02:22:44;12.40;99.90
14119;DHT22;7138;49.246;9.100;2023-08-08T02:25:09;12.40;99.90
14119;DHT22;7138;49.246;9.100;2023-08-08T02:27:35;12.30;99.90
14119;DHT22;7138;49.246;9.100;2023-08-08T02:30:02;12.30;99.90
14119;DHT22;7138;49.246;9.100;2023-08-08T02:32:28;12.30;99.90
14119;DHT22;7138;49.246;9.100;2023-08-08T02:34:55;12.20;99.90
14119;DHT22;7138;49.246;9.100;2023-08-08T02:37:21;12.10;99.90
14119;DHT22;7138;49.246;9.100;2023-08-08T02:39:47;12.10;99.90
14119;DHT22;7138;49.246;9.100;2023-08-08T02:42:13;12.10;99.90
14119;DHT22;7138;49.246;9.100;2023-08-08T02:44:39;12.10;99.90
14119;DHT22;7138;49.246;9.100;2023-08-08T02:47:04;12.10;99.90
14119;DHT22;7138;49.246;9.100;2023-08-08T02:49:30;12.10;99.90
14119;DHT22;7138;49.246;9.100;2023-08-08T02:52:00;12.10;99.90
14119;DHT22;7138;49.246;9.100;2023-08-08T02:54:26;12.10;99.90
14119;DHT22;7138;49.246;9.100;2023-08-08T02:56:52;12.10;99.90
14119;DHT22;7138;49.246;9.100;2023-08-08T02:59:18;12.10;99.90
14119;DHT22;7138;49.246;9.100;2023-08-08T03:01:43;12.00;99.90
14119;DHT22;7138;49.246;9.100;2023-08-08T03:04:09;11.80;99.90
14119;DHT22;7138;49.246;9.100;2023-08-08T03:06:35;11.80;99.90
14119;DHT22;7138;49.246;9.100;2023-08-08T03:09:02;11.80;99.90
14119;DHT22;7138;49.246;9.100;2023-08-08T03:11:28;11.70;99.90
14119;DHT22;7138;49.246;9.100;2023-08-08T03:13:54;11.70;99.90
14119;DHT22;7138;49.246;9.100;2023-08-08T03:16:20;11.60;99.90
14119;DHT22;7138;49.246;9.100;2023-08-08T03:18:46;11.60;99.90
14119;DHT22;7138;49.246;9.100;2023-08-08T03:21:11;11.70;99.90
14119;DHT22;7138;49.246;9.100;2023-08-08T03:23:37;11.60;99.90
14119;DHT22;7138;49.246;9.100;2023-08-08T03:26:04;11.60;99.90
14119;DHT22;7138;49.246;9.100;2023-08-08T03:28:30;11.50;99.90
14119;DHT22;7138;49.246;9.100;2023-08-08T03:30:56;11.60;99.90
14119;DHT22;7138;49.246;9.100;2023-08-08T03:33:22;11.60;99.90
14119;DHT22;7138;49.246;9.100;2023-08-08T03:35:48;11.60;99.90
14119;DHT22;7138;49.246;9.100;2023-08-08T03:38:14;11.60;99.90
14119;DHT22;7138;49.246;9.100;2023-08-08T03:40:40;11.60;99.90
14119;DHT22;7138;49.246;9.100;2023-08-08T03:43:07;11.60;99.90
14119;DHT22;7138;49.246;9.100;2023-08-08T03:45:33;11.70;99.90
14119;DHT22;7138;49.246;9.100;2023-08-08T03:47:59;11.60;99.90
14119;DHT22;7138;49.246;9.100;2023-08-08T03:50:25;11.60;99.90
14119;DHT22;7138;49.246;9.100;2023-08-08T03:52:50;11.50;99.90
14119;DHT22;7138;49.246;9.100;2023-08-08T03:55:16;11.50;99.90
14119;DHT22;7138;49.246;9.100;2023-08-08T03:57:42;11.50;99.90
14119;DHT22;7138;49.246;9.100;2023-08-08T04:00:10;11.50;99.90
14119;DHT22;7138;49.246;9.100;2023-08-08T04:02:37;11.50;99.90
14119;DHT22;7138;49.246;9.100;2023-08-08T04:05:03;11.50;99.90
14119;DHT22;7138;49.246;9.100;2023-08-08T04:07:30;11.60;99.90
14119;DHT22;7138;49.246;9.100;2023-08-08T04:09:56;11.60;99.90
14119;DHT22;7138;49.246;9.100;2023-08-08T04:12:21;11.50;99.90
14119;DHT22;7138;49.246;9.100;2023-08-08T04:14:47;11.50;99.90
14119;DHT22;7138;49.246;9.100;2023-08-08T04:17:14;11.50;99.90
14119;DHT22;7138;49.246;9.100;2023-08-08T04:19:40;11.50;99.90
14119;DHT22;7138;49.246;9.100;2023-08-08T04:22:06;11.50;99.90
14119;DHT22;7138;49.246;9.100;2023-08-08T04:24:32;11.50;99.90
14119;DHT22;7138;49.246;9.100;2023-08-08T04:26:58;11.50;99.90
14119;DHT22;7138;49.246;9.100;2023-08-08T04:29:23;11.50;99.90
14119;DHT22;7138;49.246;9.100;2023-08-08T04:31:49;11.50;99.90
14119;DHT22;7138;49.246;9.100;2023-08-08T04:34:16;11.60;99.90
14119;DHT22;7138;49.246;9.100;2023-08-08T04:36:42;11.50;99.90
14119;DHT22;7138;49.246;9.100;2023-08-08T04:39:08;11.60;99.90
14119;DHT22;7138;49.246;9.100;2023-08-08T04:41:34;11.60;99.90
14119;DHT22;7138;49.246;9.100;2023-08-08T04:44:00;11.70;99.90
14119;DHT22;7138;49.246;9.100;2023-08-08T04:46:26;11.80;99.90
14119;DHT22;7138;49.246;9.100;2023-08-08T04:48:51;11.80;99.90
14119;DHT22;7138;49.246;9.100;2023-08-08T04:51:18;11.90;99.90
14119;DHT22;7138;49.246;9.100;2023-08-08T04:53:44;12.20;99.90
14119;DHT22;7138;49.246;9.100;2023-08-08T04:56:10;12.90;99.90
14119;DHT22;7138;49.246;9.100;2023-08-08T04:58:36;12.80;99.90
14119;DHT22;7138;49.246;9.100;2023-08-08T05:01:02;13.00;99.90
14119;DHT22;7138;49.246;9.100;2023-08-08T05:03:28;13.90;99.90
14119;DHT22;7138;49.246;9.100;2023-08-08T05:05:54;13.70;99.90
14119;DHT22;7138;49.246;9.100;2023-08-08T05:08:21;13.40;99.90
14119;DHT22;7138;49.246;9.100;2023-08-08T05:10:47;13.20;99.90
14119;DHT22;7138;49.246;9.100;2023-08-08T05:13:13;13.00;99.90
14119;DHT22;7138;49.246;9.100;2023-08-08T05:15:39;13.00;99.90
14119;DHT22;7138;49.246;9.100;2023-08-08T05:18:05;13.00;99.90
14119;DHT22;7138;49.246;9.100;2023-08-08T05:20:30;13.00;99.90
14119;DHT22;7138;49.246;9.100;2023-08-08T05:22:56;13.40;99.90
14119;DHT22;7138;49.246;9.100;2023-08-08T05:25:24;14.50;99.90
14119;DHT22;7138;49.246;9.100;2023-08-08T05:27:49;15.10;99.90
14119;DHT22;7138;49.246;9.100;2023-08-08T05:30:15;14.60;99.90
14119;DHT22;7138;49.246;9.100;2023-08-08T05:32:41;15.20;99.90
14119;DHT22;7138;49.246;9.100;2023-08-08T05:35:08;14.70;99.90
14119;DHT22;7138;49.246;9.100;2023-08-08T05:37:34;15.30;99.90
14119;DHT22;7138;49.246;9.100;2023-08-08T05:40:00;15.90;99.90
14119;DHT22;7138;49.246;9.100;2023-08-08T05:42:27;15.00;99.90
14119;DHT22;7138;49.246;9.100;2023-08-08T05:47:21;15.50;99.90
14119;DHT22;7138;49.246;9.100;2023-08-08T05:49:47;15.30;99.90
14119;DHT22;7138;49.246;9.100;2023-08-08T05:52:12;17.50;99.90
14119;DHT22;7138;49.246;9.100;2023-08-08T05:54:38;18.10;99.90
14119;DHT22;7138;49.246;9.100;2023-08-08T05:57:05;17.80;99.90
14119;DHT22;7138;49.246;9.100;2023-08-08T05:59:33;18.40;99.90
14119;DHT22;7138;49.246;9.100;2023-08-08T06:01:58;19.20;99.90
14119;DHT22;7138;49.246;9.100;2023-08-08T06:04:27;19.90;99.90
14119;DHT22;7138;49.246;9.100;2023-08-08T06:06:53;19.40;99.90
14119;DHT22;7138;49.246;9.100;2023-08-08T06:09:19;18.50;99.90
14119;DHT22;7138;49.246;9.100;2023-08-08T06:11:45;18.30;99.90
14119;DHT22;7138;49.246;9.100;2023-08-08T06:14:11;18.60;99.90
14119;DHT22;7138;49.246;9.100;2023-08-08T06:16:38;17.40;99.90
14119;DHT22;7138;49.246;9.100;2023-08-08T06:19:04;17.90;99.90
14119;DHT22;7138;49.246;9.100;2023-08-08T06:21:30;17.80;99.90
14119;DHT22;7138;49.246;9.100;2023-08-08T06:23:56;18.10;99.90
14119;DHT22;7138;49.246;9.100;2023-08-08T06:26:22;18.40;99.90
14119;DHT22;7138;49.246;9.100;2023-08-08T06:28:48;19.00;99.90
14119;DHT22;7138;49.246;9.100;2023-08-08T06:31:14;18.80;99.90
14119;DHT22;7138;49.246;9.100;2023-08-08T06:33:41;18.50;99.90
14119;DHT22;7138;49.246;9.100;2023-08-08T06:36:07;19.10;99.90
14119;DHT22;7138;49.246;9.100;2023-08-08T06:38:33;19.10;99.90
14119;DHT22;7138;49.246;9.100;2023-08-08T06:40:59;19.10;99.90
14119;DHT22;7138;49.246;9.100;2023-08-08T06:43:25;19.30;99.90
14119;DHT22;7138;49.246;9.100;2023-08-08T06:45:51;19.60;99.90
14119;DHT22;7138;49.246;9.100;2023-08-08T06:48:17;19.30;99.90
14119;DHT22;7138;49.246;9.100;2023-08-08T06:50:44;19.20;99.90
14119;DHT22;7138;49.246;9.100;2023-08-08T06:53:10;19.10;99.90
14119;DHT22;7138;49.246;9.100;2023-08-08T06:55:36;19.30;99.90
14119;DHT22;7138;49.246;9.100;2023-08-08T06:58:02;19.10;99.90
14119;DHT22;7138;49.246;9.100;2023-08-08T07:00:28;18.40;99.90
14119;DHT22;7138;49.246;9.100;2023-08-08T07:02:54;18.50;99.90
14119;DHT22;7138;49.246;9.100;2023-08-08T07:05:20;18.90;99.90
14119;DHT22;7138;49.246;9.100;2023-08-08T07:07:49;19.00;99.90
14119;DHT22;7138;49.246;9.100;2023-08-08T07:10:15;18.80;99.90
14119;DHT22;7138;49.246;9.100;2023-08-08T07:12:41;19.10;99.90
14119;DHT22;7138;49.246;9.100;2023-08-08T07:15:08;19.20;99.90
14119;DHT22;7138;49.246;9.100;2023-08-08T07:17:34;19.30;99.90
14119;DHT22;7138;49.246;9.100;2023-08-08T07:20:00;19.40;99.90
14119;DHT22;7138;49.246;9.100;2023-08-08T07:22:26;19.40;99.90
14119;DHT22;7138;49.246;9.100;2023-08-08T07:24:53;19.50;99.90
14119;DHT22;7138;49.246;9.100;2023-08-08T07:27:19;19.10;99.90
14119;DHT22;7138;49.246;9.100;2023-08-08T07:29:45;18.90;99.90
14119;DHT22;7138;49.246;9.100;2023-08-08T07:32:11;19.10;99.90
14119;DHT22;7138;49.246;9.100;2023-08-08T07:34:37;19.10;99.90
14119;DHT22;7138;49.246;9.100;2023-08-08T07:37:03;18.90;99.90
14119;DHT22;7138;49.246;9.100;2023-08-08T07:39:29;18.80;99.90
14119;DHT22;7138;49.246;9.100;2023-08-08T07:41:57;18.70;99.90
14119;DHT22;7138;49.246;9.100;2023-08-08T07:44:23;18.80;99.90
14119;DHT22;7138;49.246;9.100;2023-08-08T07:46:48;19.30;99.90
14119;DHT22;7138;49.246;9.100;2023-08-08T07:49:14;19.20;99.90
14119;DHT22;7138;49.246;9.100;2023-08-08T07:51:40;19.40;99.90
14119;DHT22;7138;49.246;9.100;2023-08-08T07:54:06;19.60;99.90
14119;DHT22;7138;49.246;9.100;2023-08-08T07:56:34;20.10;99.90
14119;DHT22;7138;49.246;9.100;2023-08-08T07:59:01;20.10;99.90
14119;DHT22;7138;49.246;9.100;2023-08-08T08:01:27;20.10;99.90
14119;DHT22;7138;49.246;9.100;2023-08-08T08:03:53;20.00;99.90
14119;DHT22;7138;49.246;9.100;2023-08-08T08:06:19;20.00;99.90
14119;DHT22;7138;49.246;9.100;2023-08-08T08:08:45;20.20;99.90
14119;DHT22;7138;49.246;9.100;2023-08-08T08:11:11;19.90;99.90
14119;DHT22;7138;49.246;9.100;2023-08-08T08:13:38;19.40;99.90
14119;DHT22;7138;49.246;9.100;2023-08-08T08:16:05;19.00;99.90
14119;DHT22;7138;49.246;9.100;2023-08-08T08:18:31;18.90;99.90
14119;DHT22;7138;49.246;9.100;2023-08-08T08:20:59;18.70;99.90
14119;DHT22;7138;49.246;9.100;2023-08-08T08:23:25;18.60;99.90
14119;DHT22;7138;49.246;9.100;2023-08-08T08:25:51;18.50;99.90
14119;DHT22;7138;49.246;9.100;2023-08-08T08:28:17;18.80;99.90
14119;DHT22;7138;49.246;9.100;2023-08-08T08:30:43;19.00;99.90
14119;DHT22;7138;49.246;9.100;2023-08-08T08:33:10;19.10;99.90
14119;DHT22;7138;49.246;9.100;2023-08-08T08:35:36;19.00;99.90
14119;DHT22;7138;49.246;9.100;2023-08-08T08:38:03;19.20;99.90
14119;DHT22;7138;49.246;9.100;2023-08-08T08:40:30;19.00;99.90
14119;DHT22;7138;49.246;9.100;2023-08-08T08:43:04;18.70;99.90
14119;DHT22;7138;49.246;9.100;2023-08-08T08:45:32;18.80;99.90
14119;DHT22;7138;49.246;9.100;2023-08-08T08:48:02;18.80;99.90
14119;DHT22;7138;49.246;9.100;2023-08-08T08:50:33;18.70;99.90
14119;DHT22;7138;49.246;9.100;2023-08-08T08:53:00;18.60;99.90
14119;DHT22;7138;49.246;9.100;2023-08-08T08:55:27;18.50;99.90
14119;DHT22;7138;49.246;9.100;2023-08-08T08:57:54;18.50;99.90
14119;DHT22;7138;49.246;9.100;2023-08-08T09:00:20;18.70;99.90
14119;DHT22;7138;49.246;9.100;2023-08-08T09:02:48;18.70;99.90
14119;DHT22;7138;49.246;9.100;2023-08-08T09:05:15;18.50;99.90
14119;DHT22;7138;49.246;9.100;2023-08-08T09:07:48;18.70;99.90
14119;DHT22;7138;49.246;9.100;2023-08-08T09:10:15;19.10;99.90
14119;DHT22;7138;49.246;9.100;2023-08-08T09:12:42;19.20;99.90
14119;DHT22;7138;49.246;9.100;2023-08-08T09:15:09;19.20;99.90
14119;DHT22;7138;49.246;9.100;2023-08-08T09:17:36;19.10;99.90
14119;DHT22;7138;49.246;9.100;2023-08-08T09:20:07;19.20;99.90
14119;DHT22;7138;49.246;9.100;2023-08-08T09:22:36;19.40;99.90
14119;DHT22;7138;49.246;9.100;2023-08-08T09:25:05;19.10;99.90
14119;DHT22;7138;49.246;9.100;2023-08-08T09:27:32;19.30;99.90
14119;DHT22;7138;49.246;9.100;2023-08-08T09:29:57;19.20;99.90
14119;DHT22;7138;49.246;9.100;2023-08-08T09:32:28;19.60;99.90
14119;DHT22;7138;49.246;9.100;2023-08-08T09:34:56;19.80;99.90
14119;DHT22;7138;49.246;9.100;2023-08-08T09:37:22;20.00;99.90
14119;DHT22;7138;49.246;9.100;2023-08-08T09:39:56;20.20;99.90
14119;DHT22;7138;49.246;9.100;2023-08-08T09:42:23;19.80;99.90
14119;DHT22;7138;49.246;9.100;2023-08-08T09:44:51;19.70;99.90
14119;DHT22;7138;49.246;9.100;2023-08-08T09:47:17;19.70;99.90
14119;DHT22;7138;49.246;9.100;2023-08-08T09:49:43;19.90;99.90
14119;DHT22;7138;49.246;9.100;2023-08-08T09:52:11;19.90;99.90
14119;DHT22;7138;49.246;9.100;2023-08-08T09:54:37;20.00;99.90
14119;DHT22;7138;49.246;9.100;2023-08-08T09:57:05;20.10;99.90
14119;DHT22;7138;49.246;9.100;2023-08-08T09:59:33;20.30;99.90
14119;DHT22;7138;49.246;9.100;2023-08-08T10:02:00;20.70;99.90
14119;DHT22;7138;49.246;9.100;2023-08-08T10:04:27;20.60;99.90
14119;DHT22;7138;49.246;9.100;2023-08-08T10:06:53;20.50;99.90
14119;DHT22;7138;49.246;9.100;2023-08-08T10:09:20;21.10;99.90
14119;DHT22;7138;49.246;9.100;2023-08-08T10:11:47;21.40;99.90
14119;DHT22;7138;49.246;9.100;2023-08-08T10:14:13;21.50;99.90
14119;DHT22;7138;49.246;9.100;2023-08-08T10:16:43;21.50;99.90
14119;DHT22;7138;49.246;9.100;2023-08-08T10:19:10;20.60;99.90
14119;DHT22;7138;49.246;9.100;2023-08-08T10:21:41;20.60;99.90
14119;DHT22;7138;49.246;9.100;2023-08-08T10:24:10;20.40;99.90
14119;DHT22;7138;49.246;9.100;2023-08-08T10:26:51;20.30;99.90
14119;DHT22;7138;49.246;9.100;2023-08-08T10:29:18;20.30;99.90
14119;DHT22;7138;49.246;9.100;2023-08-08T10:31:52;20.40;99.90
14119;DHT22;7138;49.246;9.100;2023-08-08T10:34:20;20.10;99.90
14119;DHT22;7138;49.246;9.100;2023-08-08T10:36:51;20.00;99.90
14119;DHT22;7138;49.246;9.100;2023-08-08T10:39:19;20.20;99.90
14119;DHT22;7138;49.246;9.100;2023-08-08T10:41:47;20.20;99.90
14119;DHT22;7138;49.246;9.100;2023-08-08T10:44:21;20.20;99.90
14119;DHT22;7138;49.246;9.100;2023-08-08T10:46:49;20.10;99.90
14119;DHT22;7138;49.246;9.100;2023-08-08T10:49:18;20.40;99.90
14119;DHT22;7138;49.246;9.100;2023-08-08T10:51:45;20.60;99.90
14119;DHT22;7138;49.246;9.100;2023-08-08T10:54:14;21.00;99.90
14119;DHT22;7138;49.246;9.100;2023-08-08T10:56:47;20.60;99.90
14119;DHT22;7138;49.246;9.100;2023-08-08T10:59:15;20.60;99.90
14119;DHT22;7138;49.246;9.100;2023-08-08T11:01:45;20.60;99.90
14119;DHT22;7138;49.246;9.100;2023-08-08T11:04:15;20.40;99.90
14119;DHT22;7138;49.246;9.100;2023-08-08T11:06:42;20.60;99.90
14119;DHT22;7138;49.246;9.100;2023-08-08T11:09:08;20.90;99.90
14119;DHT22;7138;49.246;9.100;2023-08-08T11:11:36;20.90;99.90
14119;DHT22;7138;49.246;9.100;2023-08-08T11:14:11;20.90;99.90
14119;DHT22;7138;49.246;9.100;2023-08-08T11:16:38;20.60;99.90
14119;DHT22;7138;49.246;9.100;2023-08-08T11:19:04;20.50;99.90
14119;DHT22;7138;49.246;9.100;2023-08-08T11:21:35;20.70;99.90
14119;DHT22;7138;49.246;9.100;2023-08-08T11:24:02;20.80;99.90
14119;DHT22;7138;49.246;9.100;2023-08-08T11:26:28;20.70;99.90
14119;DHT22;7138;49.246;9.100;2023-08-08T11:28:57;20.70;99.90
14119;DHT22;7138;49.246;9.100;2023-08-08T11:31:24;20.70;99.90
14119;DHT22;7138;49.246;9.100;2023-08-08T11:33:52;20.70;99.90
14119;DHT22;7138;49.246;9.100;2023-08-08T11:36:18;20.50;99.90
14119;DHT22;7138;49.246;9.100;2023-08-08T11:38:46;20.50;99.90
14119;DHT22;7138;49.246;9.100;2023-08-08T11:41:13;20.70;99.90
14119;DHT22;7138;49.246;9.100;2023-08-08T11:43:40;20.70;99.90
14119;DHT22;7138;49.246;9.100;2023-08-08T11:46:08;20.50;99.90
14119;DHT22;7138;49.246;9.100;2023-08-08T11:48:35;20.40;99.90
14119;DHT22;7138;49.246;9.100;2023-08-08T11:51:03;20.50;99.90
14119;DHT22;7138;49.246;9.100;2023-08-08T11:53:29;20.40;99.90
14119;DHT22;7138;49.246;9.100;2023-08-08T11:55:57;20.50;99.90
14119;DHT22;7138;49.246;9.100;2023-08-08T11:58:24;20.50;99.90
14119;DHT22;7138;49.246;9.100;2023-08-08T12:00:51;20.50;99.90
14119;DHT22;7138;49.246;9.100;2023-08-08T12:03:18;20.50;99.90
14119;DHT22;7138;49.246;9.100;2023-08-08T12:05:45;20.50;99.90
14119;DHT22;7138;49.246;9.100;2023-08-08T12:08:11;20.30;99.90
14119;DHT22;7138;49.246;9.100;2023-08-08T12:10:37;20.30;99.90
14119;DHT22;7138;49.246;9.100;2023-08-08T12:13:04;20.30;99.90
14119;DHT22;7138;49.246;9.100;2023-08-08T12:15:35;20.70;99.90
14119;DHT22;7138;49.246;9.100;2023-08-08T12:18:02;20.50;99.90
14119;DHT22;7138;49.246;9.100;2023-08-08T12:20:29;20.40;99.90
14119;DHT22;7138;49.246;9.100;2023-08-08T12:22:56;20.40;99.90
14119;DHT22;7138;49.246;9.100;2023-08-08T12:25:22;20.50;99.90
14119;DHT22;7138;49.246;9.100;2023-08-08T12:27:48;20.70;99.90
14119;DHT22;7138;49.246;9.100;2023-08-08T12:30:16;20.80;99.90
14119;DHT22;7138;49.246;9.100;2023-08-08T12:32:42;20.90;99.90
14119;DHT22;7138;49.246;9.100;2023-08-08T12:35:08;20.90;99.90
14119;DHT22;7138;49.246;9.100;2023-08-08T12:37:34;20.90;99.90
14119;DHT22;7138;49.246;9.100;2023-08-08T12:40:00;21.10;99.90
14119;DHT22;7138;49.246;9.100;2023-08-08T12:42:27;20.90;99.90
14119;DHT22;7138;49.246;9.100;2023-08-08T12:44:53;20.90;99.90
14119;DHT22;7138;49.246;9.100;2023-08-08T12:47:21;21.10;99.90
14119;DHT22;7138;49.246;9.100;2023-08-08T12:49:47;21.20;99.90
14119;DHT22;7138;49.246;9.100;2023-08-08T12:52:13;21.30;99.90
14119;DHT22;7138;49.246;9.100;2023-08-08T12:54:39;21.40;99.90
14119;DHT22;7138;49.246;9.100;2023-08-08T12:57:05;21.70;99.90
14119;DHT22;7138;49.246;9.100;2023-08-08T12:59:31;22.40;99.90
14119;DHT22;7138;49.246;9.100;2023-08-08T13:01:56;22.30;99.90
14119;DHT22;7138;49.246;9.100;2023-08-08T13:04:24;22.20;99.90
14119;DHT22;7138;49.246;9.100;2023-08-08T13:06:50;21.90;99.90
14119;DHT22;7138;49.246;9.100;2023-08-08T13:09:19;21.70;99.90
14119;DHT22;7138;49.246;9.100;2023-08-08T13:11:45;22.10;99.90
14119;DHT22;7138;49.246;9.100;2023-08-08T13:14:11;22.50;99.90
14119;DHT22;7138;49.246;9.100;2023-08-08T13:16:37;22.40;99.90
14119;DHT22;7138;49.246;9.100;2023-08-08T13:19:03;22.30;99.90
14119;DHT22;7138;49.246;9.100;2023-08-08T13:21:30;22.30;99.90
14119;DHT22;7138;49.246;9.100;2023-08-08T13:23:56;22.10;99.90
14119;DHT22;7138;49.246;9.100;2023-08-08T13:26:22;21.90;99.90
14119;DHT22;7138;49.246;9.100;2023-08-08T13:28:48;22.30;99.90
14119;DHT22;7138;49.246;9.100;2023-08-08T13:31:15;22.40;99.90
14119;DHT22;7138;49.246;9.100;2023-08-08T13:33:41;22.40;99.90
14119;DHT22;7138;49.246;9.100;2023-08-08T13:36:07;22.60;99.90
14119;DHT22;7138;49.246;9.100;2023-08-08T13:38:34;22.00;99.90
14119;DHT22;7138;49.246;9.100;2023-08-08T13:41:00;21.50;99.90
14119;DHT22;7138;49.246;9.100;2023-08-08T13:43:26;21.30;99.90
14119;DHT22;7138;49.246;9.100;2023-08-08T13:45:52;21.70;99.90
14119;DHT22;7138;49.246;9.100;2023-08-08T13:48:18;21.90;99.90
14119;DHT22;7138;49.246;9.100;2023-08-08T13:50:44;21.90;99.90
14119;DHT22;7138;49.246;9.100;2023-08-08T13:53:10;21.60;99.90
14119;DHT22;7138;49.246;9.100;2023-08-08T13:55:37;21.80;99.90
14119;DHT22;7138;49.246;9.100;2023-08-08T13:58:05;21.90;99.90
14119;DHT22;7138;49.246;9.100;2023-08-08T14:00:31;21.70;99.90
14119;DHT22;7138;49.246;9.100;2023-08-08T14:02:57;21.80;99.90
14119;DHT22;7138;49.246;9.100;2023-08-08T14:05:24;21.90;99.90
14119;DHT22;7138;49.246;9.100;2023-08-08T14:07:50;21.80;99.90
14119;DHT22;7138;49.246;9.100;2023-08-08T14:10:16;21.40;99.90
14119;DHT22;7138;49.246;9.100;2023-08-08T14:12:43;21.10;99.90
14119;DHT22;7138;49.246;9.100;2023-08-08T14:15:09;21.20;99.90
14119;DHT22;7138;49.246;9.100;2023-08-08T14:17:35;21.20;99.90
14119;DHT22;7138;49.246;9.100;2023-08-08T14:20:01;21.50;99.90
14119;DHT22;7138;49.246;9.100;2023-08-08T14:22:27;21.90;99.90
14119;DHT22;7138;49.246;9.100;2023-08-08T14:24:53;22.10;99.90
14119;DHT22;7138;49.246;9.100;2023-08-08T14:27:19;22.00;99.90
14119;DHT22;7138;49.246;9.100;2023-08-08T14:29:46;21.60;99.90
14119;DHT22;7138;49.246;9.100;2023-08-08T14:32:12;21.60;99.90
14119;DHT22;7138;49.246;9.100;2023-08-08T14:34:38;21.70;99.90
14119;DHT22;7138;49.246;9.100;2023-08-08T14:37:05;21.80;99.90
14119;DHT22;7138;49.246;9.100;2023-08-08T14:39:31;21.70;99.90
14119;DHT22;7138;49.246;9.100;2023-08-08T14:41:58;21.70;99.90
14119;DHT22;7138;49.246;9.100;2023-08-08T14:44:23;21.50;99.90
14119;DHT22;7138;49.246;9.100;2023-08-08T14:46:51;21.40;99.90
14119;DHT22;7138;49.246;9.100;2023-08-08T14:49:20;21.30;99.90
14119;DHT22;7138;49.246;9.100;2023-08-08T14:51:46;21.30;99.90
14119;DHT22;7138;49.246;9.100;2023-08-08T14:54:12;21.40;99.90
14119;DHT22;7138;49.246;9.100;2023-08-08T14:56:38;21.40;99.90
14119;DHT22;7138;49.246;9.100;2023-08-08T14:59:04;21.70;99.90
14119;DHT22;7138;49.246;9.100;2023-08-08T15:01:29;21.90;99.90
14119;DHT22;7138;49.246;9.100;2023-08-08T15:03:57;22.20;99.90
14119;DHT22;7138;49.246;9.100;2023-08-08T15:06:23;22.20;99.90
14119;DHT22;7138;49.246;9.100;2023-08-08T15:08:49;22.20;99.90
14119;DHT22;7138;49.246;9.100;2023-08-08T15:11:15;22.20;99.90
14119;DHT22;7138;49.246;9.100;2023-08-08T15:13:42;22.00;99.90
14119;DHT22;7138;49.246;9.100;2023-08-08T15:16:08;21.70;99.90
14119;DHT22;7138;49.246;9.100;2023-08-08T15:18:33;21.60;99.90
14119;DHT22;7138;49.246;9.100;2023-08-08T15:21:01;22.00;99.90
14119;DHT22;7138;49.246;9.100;2023-08-08T15:23:27;22.10;99.90
14119;DHT22;7138;49.246;9.100;2023-08-08T15:25:53;21.90;99.90
14119;DHT22;7138;49.246;9.100;2023-08-08T15:28:20;21.90;99.90
14119;DHT22;7138;49.246;9.100;2023-08-08T15:30:46;21.70;99.90
14119;DHT22;7138;49.246;9.100;2023-08-08T15:33:12;21.60;99.90
14119;DHT22;7138;49.246;9.100;2023-08-08T15:35:38;21.50;99.90
14119;DHT22;7138;49.246;9.100;2023-08-08T15:38:05;21.50;99.90
14119;DHT22;7138;49.246;9.100;2023-08-08T15:40:31;21.40;99.90
14119;DHT22;7138;49.246;9.100;2023-08-08T15:42:57;21.20;99.90